Time;durP1;ratioP1;P1;durP2;ratioP2;P2;SDS_P1;SDS_P2;PMS_P1;PMS_P2;Temp;Humidity;BMP_temperature;BMP_pressure;BME280_temperature;BME280_humidity;BME280_pressure;Samples;Min_cycle;Max_cycle;Signal;HPM_P1;HPM_P2
2023/10/28 00:00:17;;;;;;;7.60;3.50;;;11.30;99.90;;;;;;5089086;28;20683;-59
2023/10/28 00:02:46;;;;;;;6.20;3.40;;;11.20;99.90;;;;;;5084269;28;20273;-58
2023/10/28 00:05:14;;;;;;;5.70;2.90;;;11.20;99.90;;;;;;5082994;28;20227;-58
2023/10/28 00:07:42;;;;;;;4.30;2.87;;;11.30;99.90;;;;;;5073321;28;20205;-59
2023/10/28 00:10:11;;;;;;;5.77;2.53;;;11.20;99.90;;;;;;5086252;28;20184;-58
2023/10/28 00:12:42;;;;;;;5.90;3.13;;;11.20;99.90;;;;;;5085506;28;20876;-59
2023/10/28 00:15:13;;;;;;;7.93;3.20;;;11.20;99.90;;;;;;5086375;28;20218;-58
2023/10/28 00:17:43;;;;;;;5.13;2.80;;;11.10;99.90;;;;;;5086248;28;20250;-58
2023/10/28 00:20:13;;;;;;;3.23;2.97;;;11.00;99.90;;;;;;5081628;28;20226;-58
2023/10/28 00:22:41;;;;;;;3.73;2.80;;;11.00;99.90;;;;;;5088545;28;20191;-58
2023/10/28 00:25:11;;;;;;;5.63;2.80;;;11.00;99.90;;;;;;5080940;28;20248;-59
2023/10/28 00:27:39;;;;;;;3.27;2.97;;;10.90;99.90;;;;;;5079391;28;20223;-58
2023/10/28 00:30:09;;;;;;;5.93;2.87;;;10.90;99.90;;;;;;5082599;28;20700;-58
2023/10/28 00:32:38;;;;;;;4.13;2.67;;;10.90;99.90;;;;;;5083442;28;20315;-58
2023/10/28 00:35:11;;;;;;;3.67;2.87;;;10.80;99.90;;;;;;5083034;28;20292;-59
2023/10/28 00:37:39;;;;;;;3.10;2.80;;;10.90;99.90;;;;;;5087988;28;20186;-58
2023/10/28 00:40:09;;;;;;;3.73;2.60;;;10.90;99.90;;;;;;5081596;28;20647;-58
2023/10/28 00:42:38;;;;;;;5.47;3.20;;;10.90;99.90;;;;;;5078642;28;20211;-60
2023/10/28 00:45:08;;;;;;;5.00;3.60;;;10.90;99.90;;;;;;5081061;28;20230;-59
2023/10/28 00:47:39;;;;;;;4.47;3.23;;;10.90;99.90;;;;;;5087917;28;20554;-60
2023/10/28 00:50:10;;;;;;;4.30;2.90;;;10.90;99.90;;;;;;5085262;28;20215;-59
2023/10/28 00:52:39;;;;;;;4.00;3.20;;;11.00;99.90;;;;;;5082154;28;20295;-59
2023/10/28 00:55:10;;;;;;;6.80;3.50;;;11.00;99.90;;;;;;5086174;28;20187;-59
2023/10/28 00:57:39;;;;;;;6.20;3.20;;;11.00;99.90;;;;;;5079647;28;20302;-59
2023/10/28 01:00:10;;;;;;;5.47;2.97;;;11.00;99.90;;;;;;5081753;28;20223;-59
2023/10/28 01:02:40;;;;;;;5.33;3.10;;;11.00;99.90;;;;;;5067720;28;20231;-59
2023/10/28 01:05:12;;;;;;;6.80;3.00;;;11.10;99.90;;;;;;5083272;28;20360;-59
2023/10/28 01:07:41;;;;;;;8.03;3.40;;;11.00;99.90;;;;;;5089975;28;20187;-59
2023/10/28 01:10:10;;;;;;;10.63;3.50;;;11.10;99.90;;;;;;5080235;28;20192;-58
2023/10/28 01:12:39;;;;;;;4.27;2.70;;;11.10;99.90;;;;;;5081494;28;20268;-59
2023/10/28 01:15:08;;;;;;;5.57;3.20;;;11.10;99.90;;;;;;5067100;28;20401;-58
2023/10/28 01:17:36;;;;;;;8.13;3.23;;;11.10;99.90;;;;;;5083865;28;20268;-59
2023/10/28 01:20:05;;;;;;;4.23;2.87;;;11.00;99.90;;;;;;5083509;28;20234;-59
2023/10/28 01:22:35;;;;;;;10.07;3.10;;;11.00;99.90;;;;;;5086267;28;20523;-58
2023/10/28 01:25:04;;;;;;;6.00;3.03;;;11.00;99.90;;;;;;5067328;28;20192;-58
2023/10/28 01:27:32;;;;;;;2.93;2.47;;;11.00;99.90;;;;;;5084179;28;20223;-59
2023/10/28 01:30:00;;;;;;;5.23;2.87;;;11.00;99.90;;;;;;5081286;28;20219;-59
2023/10/28 01:32:31;;;;;;;7.00;3.00;;;11.00;99.90;;;;;;5083293;28;20708;-59
2023/10/28 01:34:59;;;;;;;7.43;3.23;;;11.00;99.90;;;;;;5085788;28;20314;-59
2023/10/28 01:37:27;;;;;;;6.70;3.00;;;11.00;99.90;;;;;;5084144;28;20188;-59
2023/10/28 01:39:57;;;;;;;7.63;3.47;;;10.90;99.90;;;;;;5076843;28;20230;-60
2023/10/28 01:42:25;;;;;;;5.63;3.00;;;10.90;99.90;;;;;;5061037;28;20220;-59
2023/10/28 01:44:53;;;;;;;6.67;3.17;;;10.80;99.90;;;;;;5081480;28;20234;-59
2023/10/28 01:47:23;;;;;;;8.87;3.83;;;10.90;99.90;;;;;;5079601;28;20226;-59
2023/10/28 01:49:51;;;;;;;5.27;3.20;;;10.90;99.90;;;;;;5084543;28;20266;-59
2023/10/28 01:52:19;;;;;;;4.93;3.27;;;10.90;99.90;;;;;;5084157;28;20200;-59
2023/10/28 01:54:47;;;;;;;7.63;3.53;;;10.90;99.90;;;;;;5080801;28;20685;-58
2023/10/28 01:57:17;;;;;;;4.63;3.50;;;11.00;99.90;;;;;;5085115;28;20307;-59
2023/10/28 01:59:45;;;;;;;6.77;3.73;;;11.00;99.90;;;;;;5082608;28;20284;-59
2023/10/28 02:02:14;;;;;;;5.87;3.70;;;11.00;99.90;;;;;;5083726;28;20220;-59
2023/10/28 02:04:42;;;;;;;5.50;3.50;;;11.00;99.90;;;;;;5082200;28;20183;-58
2023/10/28 02:07:10;;;;;;;8.57;3.93;;;11.00;99.90;;;;;;5087402;28;20302;-58
2023/10/28 02:09:38;;;;;;;5.63;3.63;;;11.00;99.90;;;;;;5082155;28;20215;-58
2023/10/28 02:12:08;;;;;;;5.17;3.70;;;11.00;99.90;;;;;;5080502;28;20219;-59
2023/10/28 02:14:40;;;;;;;11.47;3.93;;;11.00;99.90;;;;;;5086370;28;20231;-59
2023/10/28 02:17:09;;;;;;;5.40;3.57;;;11.00;99.90;;;;;;5085142;28;20219;-58
2023/10/28 02:19:39;;;;;;;15.10;3.83;;;11.00;99.90;;;;;;5084548;28;20612;-58
2023/10/28 02:22:09;;;;;;;5.87;3.67;;;11.00;99.90;;;;;;5068141;28;20196;-58
2023/10/28 02:24:42;;;;;;;5.80;3.63;;;11.00;99.90;;;;;;5082808;28;20219;-59
2023/10/28 02:27:11;;;;;;;8.63;3.63;;;11.00;99.90;;;;;;5084207;28;20219;-59
2023/10/28 02:29:41;;;;;;;8.53;3.50;;;11.00;99.90;;;;;;5082073;28;20221;-58
2023/10/28 02:32:10;;;;;;;9.07;4.10;;;11.10;99.90;;;;;;5083012;28;20227;-59
2023/10/28 02:34:41;;;;;;;9.00;3.73;;;11.00;99.90;;;;;;5082535;28;20223;-58
2023/10/28 02:37:10;;;;;;;8.37;3.37;;;11.00;99.90;;;;;;5084175;28;20647;-58
2023/10/28 02:39:39;;;;;;;5.03;3.40;;;11.00;99.90;;;;;;5086363;28;20222;-58
2023/10/28 02:42:07;;;;;;;7.83;3.63;;;11.10;99.90;;;;;;5082617;28;20221;-58
2023/10/28 02:44:36;;;;;;;4.67;3.63;;;11.10;99.90;;;;;;5083978;28;20227;-58
2023/10/28 02:47:06;;;;;;;5.73;3.57;;;11.10;99.90;;;;;;5079229;28;20223;-58
2023/10/28 02:49:37;;;;;;;9.27;3.80;;;11.10;99.90;;;;;;5081131;28;20290;-58
2023/10/28 02:52:06;;;;;;;7.33;3.53;;;11.10;99.90;;;;;;5084595;28;20535;-59
2023/10/28 02:54:35;;;;;;;8.30;3.90;;;11.10;99.90;;;;;;5086022;28;20223;-58
2023/10/28 02:57:03;;;;;;;9.00;4.00;;;11.10;99.90;;;;;;5081852;28;20216;-58
2023/10/28 02:59:31;;;;;;;5.73;3.37;;;11.10;99.90;;;;;;5083526;28;20222;-58
2023/10/28 03:02:00;;;;;;;10.43;3.93;;;11.10;99.90;;;;;;5086778;28;20233;-58
2023/10/28 03:04:29;;;;;;;8.93;3.67;;;11.10;99.90;;;;;;5082053;28;20282;-58
2023/10/28 03:06:57;;;;;;;9.73;4.47;;;11.20;99.90;;;;;;5089384;28;20627;-59
2023/10/28 03:09:26;;;;;;;5.50;3.37;;;11.20;99.90;;;;;;5086468;28;20411;-58
2023/10/28 03:11:54;;;;;;;8.10;3.30;;;11.20;99.90;;;;;;5085036;28;20211;-58
2023/10/28 03:14:22;;;;;;;5.63;3.47;;;11.20;99.90;;;;;;5085449;28;20215;-57
2023/10/28 03:16:51;;;;;;;8.43;3.40;;;11.20;99.90;;;;;;5085807;28;20294;-58
2023/10/28 03:19:19;;;;;;;9.97;3.57;;;11.20;99.90;;;;;;5088857;28;20183;-58
2023/10/28 03:21:49;;;;;;;10.57;3.73;;;11.30;99.90;;;;;;5087820;28;20226;-58
2023/10/28 03:24:17;;;;;;;8.43;3.80;;;11.30;99.90;;;;;;5086461;28;20223;-58
2023/10/28 03:26:45;;;;;;;11.03;3.73;;;11.20;99.90;;;;;;5085143;28;20233;-58
2023/10/28 03:29:13;;;;;;;6.83;3.53;;;11.20;99.90;;;;;;5089150;28;20569;-58
2023/10/28 03:31:41;;;;;;;10.00;3.57;;;11.20;99.90;;;;;;5088348;28;20669;-58
2023/10/28 03:34:10;;;;;;;7.07;3.40;;;11.20;99.90;;;;;;5087934;28;20199;-59
2023/10/28 03:36:38;;;;;;;10.57;3.67;;;11.30;99.90;;;;;;5086909;28;20223;-58
2023/10/28 03:39:09;;;;;;;10.83;4.60;;;11.30;99.90;;;;;;5086426;28;20215;-59
2023/10/28 03:41:39;;;;;;;9.30;3.77;;;11.30;99.90;;;;;;5083136;28;20242;-60
2023/10/28 03:44:07;;;;;;;7.37;3.50;;;11.40;99.90;;;;;;5084111;28;20231;-60
2023/10/28 03:46:35;;;;;;;12.97;3.50;;;11.40;99.90;;;;;;5089126;28;20184;-59
2023/10/28 03:49:04;;;;;;;4.87;3.13;;;11.40;99.90;;;;;;5087721;28;20196;-59
2023/10/28 03:51:34;;;;;;;12.07;3.90;;;11.40;99.90;;;;;;5090583;28;20693;-60
2023/10/28 03:54:02;;;;;;;9.20;3.70;;;11.50;99.90;;;;;;5087460;28;20315;-59
2023/10/28 03:56:32;;;;;;;10.33;3.93;;;11.40;99.90;;;;;;5085204;28;20227;-59
2023/10/28 03:59:01;;;;;;;3.30;2.90;;;11.50;99.90;;;;;;5084203;28;20693;-59
2023/10/28 04:01:29;;;;;;;9.17;3.50;;;11.50;99.90;;;;;;5083289;28;21555;-59
2023/10/28 04:03:57;;;;;;;10.37;3.60;;;11.50;99.90;;;;;;5084603;28;20698;-59
2023/10/28 04:06:26;;;;;;;7.97;3.40;;;11.50;99.90;;;;;;5081733;28;20246;-59
2023/10/28 04:08:55;;;;;;;8.80;3.50;;;11.60;99.90;;;;;;5085592;28;20234;-59
2023/10/28 04:11:23;;;;;;;8.97;2.93;;;11.60;99.90;;;;;;5087738;28;20689;-59
2023/10/28 04:13:53;;;;;;;11.87;3.30;;;11.60;99.90;;;;;;5087100;28;20590;-59
2023/10/28 04:16:22;;;;;;;8.67;3.13;;;11.60;99.90;;;;;;5080526;28;20196;-59
2023/10/28 04:18:50;;;;;;;9.97;3.00;;;11.60;99.90;;;;;;5083468;28;20285;-59
2023/10/28 04:21:19;;;;;;;10.10;3.27;;;11.60;99.90;;;;;;5085554;28;20346;-59
2023/10/28 04:23:47;;;;;;;11.07;2.87;;;11.60;99.90;;;;;;5088023;28;20223;-58
2023/10/28 04:26:15;;;;;;;7.93;3.43;;;11.60;99.90;;;;;;5070005;28;20695;-59
2023/10/28 04:28:44;;;;;;;6.77;2.80;;;11.70;99.90;;;;;;5082124;28;20285;-59
2023/10/28 04:31:15;;;;;;;9.90;2.90;;;11.70;99.90;;;;;;5067457;28;20196;-59
2023/10/28 04:33:43;;;;;;;12.47;2.83;;;11.70;99.90;;;;;;5084338;28;20219;-59
2023/10/28 04:36:12;;;;;;;6.80;3.10;;;11.70;99.90;;;;;;5086262;28;20211;-60
2023/10/28 04:38:40;;;;;;;11.17;2.97;;;11.70;99.90;;;;;;5083060;28;20227;-60
2023/10/28 04:41:09;;;;;;;9.63;2.97;;;11.70;99.90;;;;;;5079998;28;20272;-59
2023/10/28 04:43:39;;;;;;;5.67;2.83;;;11.80;99.90;;;;;;5082886;28;20212;-59
2023/10/28 04:46:07;;;;;;;7.97;2.77;;;11.80;99.90;;;;;;5084486;28;20278;-59
2023/10/28 04:48:42;;;;;;;5.70;2.63;;;11.80;99.90;;;;;;5083622;28;20723;-60
2023/10/28 04:51:10;;;;;;;7.87;2.63;;;11.80;99.90;;;;;;5083266;28;20235;-60
2023/10/28 04:53:39;;;;;;;9.17;2.87;;;11.80;99.90;;;;;;5080596;28;20260;-60
2023/10/28 04:56:08;;;;;;;8.07;2.67;;;11.90;99.90;;;;;;5085281;28;20623;-59
2023/10/28 04:58:38;;;;;;;13.17;2.90;;;11.90;99.90;;;;;;5084833;28;20549;-60
2023/10/28 05:01:06;;;;;;;11.67;2.87;;;11.90;99.90;;;;;;5067036;28;20199;-59
2023/10/28 05:03:35;;;;;;;9.40;2.90;;;11.90;99.90;;;;;;5082142;28;20249;-59
2023/10/28 05:06:05;;;;;;;7.63;2.50;;;11.90;99.90;;;;;;5085917;28;20215;-59
2023/10/28 05:08:33;;;;;;;8.33;2.77;;;11.90;99.90;;;;;;5085137;28;20250;-59
2023/10/28 05:11:02;;;;;;;9.33;2.40;;;11.90;99.90;;;;;;5086928;28;20212;-59
2023/10/28 05:13:30;;;;;;;12.03;3.27;;;11.90;99.90;;;;;;5085169;28;20221;-60
2023/10/28 05:15:59;;;;;;;9.03;2.77;;;11.90;99.90;;;;;;5086934;28;20215;-60
2023/10/28 05:18:27;;;;;;;7.87;2.70;;;11.90;99.90;;;;;;5084024;28;20255;-60
2023/10/28 05:20:56;;;;;;;8.47;2.77;;;11.90;99.90;;;;;;5084307;28;20223;-60
2023/10/28 05:23:25;;;;;;;11.03;2.83;;;12.00;99.90;;;;;;5088234;28;20215;-59
2023/10/28 05:25:54;;;;;;;8.17;2.80;;;12.00;99.90;;;;;;5082324;28;20226;-59
2023/10/28 05:28:22;;;;;;;8.57;2.87;;;12.00;99.90;;;;;;5085156;28;20247;-59
2023/10/28 05:30:50;;;;;;;7.30;2.63;;;12.00;99.90;;;;;;5082536;28;20224;-58
2023/10/28 05:33:18;;;;;;;9.33;2.73;;;12.00;99.90;;;;;;5086609;28;20223;-58
2023/10/28 05:35:48;;;;;;;10.77;2.70;;;12.00;99.90;;;;;;5083103;28;20230;-59
2023/10/28 05:38:16;;;;;;;7.67;2.37;;;12.00;99.90;;;;;;5085550;28;20280;-57
2023/10/28 05:40:46;;;;;;;7.00;2.73;;;12.00;99.90;;;;;;5079284;28;20188;-59
2023/10/28 05:43:14;;;;;;;9.47;2.37;;;12.00;99.90;;;;;;5088282;28;20199;-59
2023/10/28 05:45:43;;;;;;;7.53;2.60;;;12.00;99.90;;;;;;5082826;28;20223;-59
2023/10/28 05:48:11;;;;;;;11.27;2.60;;;12.00;99.90;;;;;;5081025;28;20215;-59
2023/10/28 05:50:39;;;;;;;6.47;2.50;;;12.00;99.90;;;;;;5084474;28;20882;-59
2023/10/28 05:53:07;;;;;;;8.70;2.53;;;12.00;99.90;;;;;;5085556;28;20219;-59
2023/10/28 05:55:35;;;;;;;5.33;2.60;;;12.00;99.90;;;;;;5067286;28;20206;-59
2023/10/28 05:58:05;;;;;;;11.67;2.47;;;12.00;99.90;;;;;;5085099;28;20204;-59
2023/10/28 06:00:33;;;;;;;7.40;2.43;;;11.90;99.90;;;;;;5079957;28;20211;-58
2023/10/28 06:03:02;;;;;;;12.60;2.60;;;12.00;99.90;;;;;;5078487;28;20227;-59
2023/10/28 06:05:30;;;;;;;6.23;2.60;;;11.90;99.90;;;;;;5062522;28;20229;-59
2023/10/28 06:07:58;;;;;;;7.23;2.33;;;11.90;99.90;;;;;;5081966;28;20227;-59
2023/10/28 06:10:27;;;;;;;8.40;2.30;;;12.00;99.90;;;;;;5066819;28;20246;-59
2023/10/28 06:12:55;;;;;;;10.97;2.67;;;12.00;99.90;;;;;;5082828;28;20238;-58
2023/10/28 06:15:25;;;;;;;8.87;2.60;;;12.00;99.90;;;;;;5084096;28;20220;-58
2023/10/28 06:17:53;;;;;;;15.13;2.83;;;11.90;99.90;;;;;;5084031;28;20220;-58
2023/10/28 06:20:21;;;;;;;4.70;2.23;;;11.90;99.90;;;;;;5066347;28;20253;-59
2023/10/28 06:22:49;;;;;;;7.27;2.30;;;12.00;99.90;;;;;;5081099;28;20202;-59
2023/10/28 06:25:18;;;;;;;13.03;2.53;;;12.00;99.90;;;;;;5082254;28;20223;-59
2023/10/28 06:27:54;;;;;;;7.63;2.20;;;11.90;99.90;;;;;;5086290;28;21092;-59
2023/10/28 06:30:24;;;;;;;7.33;2.23;;;11.90;99.90;;;;;;5080362;28;20616;-59
2023/10/28 06:32:52;;;;;;;7.20;2.43;;;11.90;99.90;;;;;;5080818;28;20452;-58
2023/10/28 06:35:21;;;;;;;15.77;3.03;;;11.90;99.90;;;;;;5080539;28;20265;-58
2023/10/28 06:37:49;;;;;;;7.97;2.33;;;11.90;99.90;;;;;;5080082;28;20200;-58
2023/10/28 06:40:17;;;;;;;9.90;2.50;;;11.90;99.90;;;;;;5085286;28;20767;-58
2023/10/28 06:42:45;;;;;;;6.33;2.50;;;11.90;99.90;;;;;;5083831;28;20685;-59
2023/10/28 06:45:13;;;;;;;7.17;2.43;;;12.00;99.90;;;;;;5088405;28;20227;-59
2023/10/28 06:47:43;;;;;;;8.03;2.60;;;12.00;99.90;;;;;;5088850;28;20211;-59
2023/10/28 06:50:11;;;;;;;9.30;2.60;;;12.00;99.90;;;;;;5085970;28;20225;-58
2023/10/28 06:52:40;;;;;;;11.77;2.80;;;12.00;99.90;;;;;;5087399;28;20192;-58
2023/10/28 06:55:12;;;;;;;6.60;2.53;;;12.10;99.90;;;;;;5088663;28;20183;-58
2023/10/28 06:57:41;;;;;;;10.87;2.80;;;12.00;99.90;;;;;;5089757;28;20219;-58
2023/10/28 07:00:13;;;;;;;8.93;2.20;;;12.10;99.90;;;;;;5085066;28;20227;-59
2023/10/28 07:02:42;;;;;;;7.73;2.17;;;12.10;99.90;;;;;;5083697;28;20223;-58
2023/10/28 07:05:11;;;;;;;9.30;2.57;;;12.10;99.90;;;;;;5080469;28;20220;-59
2023/10/28 07:07:40;;;;;;;7.70;2.03;;;12.10;99.90;;;;;;5084575;28;20211;-59
2023/10/28 07:10:09;;;;;;;5.80;2.00;;;12.10;99.90;;;;;;5088795;28;20281;-59
2023/10/28 07:12:37;;;;;;;7.50;2.00;;;12.10;99.90;;;;;;5082993;28;20215;-59
2023/10/28 07:15:09;;;;;;;9.60;2.57;;;12.20;99.90;;;;;;5086613;28;20215;-59
2023/10/28 07:17:37;;;;;;;6.07;2.10;;;12.20;99.90;;;;;;5084362;28;20216;-59
2023/10/28 07:20:08;;;;;;;6.73;2.70;;;12.20;99.90;;;;;;5088195;28;20230;-59
2023/10/28 07:22:36;;;;;;;8.07;2.37;;;12.20;99.90;;;;;;5091528;28;20226;-57
2023/10/28 07:25:06;;;;;;;8.87;2.23;;;12.20;99.90;;;;;;5085667;28;20203;-59
2023/10/28 07:27:34;;;;;;;4.37;1.70;;;12.20;99.90;;;;;;5084989;28;20899;-59
2023/10/28 07:30:03;;;;;;;4.27;2.30;;;12.20;99.90;;;;;;5086182;28;20208;-59
2023/10/28 07:32:31;;;;;;;7.20;2.10;;;12.30;99.90;;;;;;5081182;28;20717;-60
2023/10/28 07:34:59;;;;;;;6.37;2.37;;;12.20;99.90;;;;;;5087907;28;20223;-59
2023/10/28 07:37:29;;;;;;;4.63;1.80;;;12.30;99.90;;;;;;5088944;28;20219;-59
2023/10/28 07:40:00;;;;;;;3.77;1.87;;;12.30;99.90;;;;;;5086183;28;20218;-59
2023/10/28 07:42:28;;;;;;;9.77;2.20;;;12.30;99.90;;;;;;5085403;28;20218;-59
2023/10/28 07:44:56;;;;;;;6.57;1.77;;;12.30;99.90;;;;;;5087558;28;20215;-59
2023/10/28 07:47:25;;;;;;;7.00;2.10;;;12.30;99.90;;;;;;5081275;28;20220;-59
2023/10/28 07:49:53;;;;;;;3.37;1.70;;;12.30;99.90;;;;;;5081053;28;20228;-59
2023/10/28 07:52:21;;;;;;;7.13;2.07;;;12.40;99.90;;;;;;5087664;28;20211;-59
2023/10/28 07:54:51;;;;;;;4.77;2.23;;;12.40;99.90;;;;;;5081909;28;20310;-59
2023/10/28 07:57:20;;;;;;;6.40;2.30;;;12.40;99.90;;;;;;5087162;28;20220;-59
2023/10/28 07:59:48;;;;;;;5.03;1.97;;;12.50;99.90;;;;;;5088945;28;20216;-60
2023/10/28 08:02:17;;;;;;;2.47;1.60;;;12.50;99.90;;;;;;5085487;28;20233;-59
2023/10/28 08:04:45;;;;;;;5.47;2.23;;;12.50;99.90;;;;;;5078588;28;20192;-60
2023/10/28 08:07:15;;;;;;;5.83;2.10;;;12.60;99.90;;;;;;5087724;28;20188;-59
2023/10/28 08:09:45;;;;;;;6.57;1.67;;;12.70;99.90;;;;;;5086107;28;20232;-60
2023/10/28 08:12:15;;;;;;;5.00;1.70;;;12.70;99.90;;;;;;5090803;28;20215;-59
2023/10/28 08:14:48;;;;;;;4.27;1.70;;;12.80;99.90;;;;;;5064985;28;20255;-59
2023/10/28 08:17:16;;;;;;;6.33;1.90;;;12.80;99.90;;;;;;5081946;28;20297;-59
2023/10/28 08:19:45;;;;;;;7.70;2.17;;;12.80;99.90;;;;;;5089859;28;20192;-59
2023/10/28 08:22:15;;;;;;;3.83;1.83;;;12.90;99.90;;;;;;5083966;28;20196;-59
2023/10/28 08:24:44;;;;;;;3.77;1.97;;;12.90;99.90;;;;;;5087674;28;20228;-59
2023/10/28 08:27:13;;;;;;;1.73;1.63;;;12.90;99.90;;;;;;5085819;28;20613;-59
2023/10/28 08:29:43;;;;;;;5.03;1.70;;;13.00;99.90;;;;;;5079042;28;20239;-59
2023/10/28 08:32:12;;;;;;;4.57;1.70;;;13.00;99.90;;;;;;5086307;28;20221;-59
2023/10/28 08:34:43;;;;;;;5.57;1.97;;;13.00;99.90;;;;;;5071511;28;20194;-59
2023/10/28 08:37:13;;;;;;;6.83;1.87;;;13.00;99.90;;;;;;5087256;28;20286;-59
2023/10/28 08:39:42;;;;;;;9.83;2.23;;;13.10;99.90;;;;;;5081221;28;20216;-59
2023/10/28 08:42:12;;;;;;;6.63;1.67;;;13.10;99.90;;;;;;5086533;28;20298;-59
2023/10/28 08:44:43;;;;;;;2.80;1.70;;;13.10;99.90;;;;;;5085916;28;20219;-59
2023/10/28 08:47:12;;;;;;;5.53;1.73;;;13.20;99.90;;;;;;5067180;28;20223;-59
2023/10/28 08:49:44;;;;;;;5.23;2.07;;;13.20;99.90;;;;;;5067480;28;20217;-60
2023/10/28 08:52:18;;;;;;;5.73;1.80;;;13.20;99.90;;;;;;5086139;28;20220;-60
2023/10/28 08:54:46;;;;;;;5.60;2.00;;;13.20;99.90;;;;;;5081715;28;20233;-59
2023/10/28 08:57:20;;;;;;;4.30;1.90;;;13.00;99.90;;;;;;5081313;28;20230;-59
2023/10/28 08:59:50;;;;;;;8.17;2.53;;;13.00;99.90;;;;;;5071606;28;20211;-59
2023/10/28 09:02:21;;;;;;;4.40;2.40;;;13.10;99.90;;;;;;5075789;28;20227;-59
2023/10/28 09:04:49;;;;;;;7.87;2.10;;;13.30;99.90;;;;;;5080423;28;20505;-59
2023/10/28 09:07:17;;;;;;;5.17;1.87;;;13.30;97.70;;;;;;5084232;28;20198;-59
2023/10/28 09:09:46;;;;;;;4.20;1.93;;;13.30;99.10;;;;;;5066245;28;20228;-58
2023/10/28 09:12:14;;;;;;;4.40;1.80;;;13.20;99.60;;;;;;5081743;28;20230;-58
2023/10/28 09:14:43;;;;;;;5.40;2.10;;;13.10;99.90;;;;;;5086759;28;20688;-59
2023/10/28 09:17:14;;;;;;;8.10;2.30;;;13.20;99.90;;;;;;5083571;28;20227;-58
2023/10/28 09:19:43;;;;;;;7.80;2.17;;;13.30;98.80;;;;;;5086488;28;20196;-59
2023/10/28 09:22:11;;;;;;;7.93;2.33;;;13.40;94.40;;;;;;5085842;28;20216;-59
2023/10/28 09:24:45;;;;;;;7.73;2.13;;;13.50;97.30;;;;;;5081849;28;20226;-59
2023/10/28 09:27:13;;;;;;;10.30;2.00;;;13.50;94.80;;;;;;5089201;28;20212;-60
2023/10/28 09:29:42;;;;;;;8.27;2.40;;;13.50;93.70;;;;;;5088256;28;20670;-58
2023/10/28 09:32:12;;;;;;;4.37;2.20;;;13.50;95.00;;;;;;5081939;28;20555;-59
2023/10/28 09:34:41;;;;;;;9.47;2.37;;;13.60;93.10;;;;;;5085390;28;20207;-58
2023/10/28 09:37:10;;;;;;;9.37;2.50;;;13.70;96.90;;;;;;5086366;28;20552;-58
2023/10/28 09:39:39;;;;;;;6.53;2.00;;;13.80;93.40;;;;;;5082527;28;20303;-59
2023/10/28 09:42:07;;;;;;;5.93;2.30;;;13.90;90.50;;;;;;5082218;28;20216;-59
2023/10/28 09:44:35;;;;;;;6.73;2.43;;;14.00;76.60;;;;;;5080092;28;20211;-59
2023/10/28 09:47:08;;;;;;;10.17;2.07;;;14.00;73.90;;;;;;5085929;28;20671;-59
2023/10/28 09:49:43;;;;;;;8.63;2.73;;;13.90;75.40;;;;;;5085884;28;20188;-58
2023/10/28 09:52:14;;;;;;;72.40;17.03;;;14.00;83.90;;;;;;5067928;28;20200;-58
2023/10/28 09:54:43;;;;;;;21.23;10.23;;;14.20;82.50;;;;;;5082391;28;24467;-59
2023/10/28 09:57:11;;;;;;;25.47;9.60;;;14.30;56.20;;;;;;5067720;28;20224;-59
2023/10/28 09:59:44;;;;;;;10.67;3.60;;;14.30;64.00;;;;;;5080973;28;20220;-59
2023/10/28 10:02:30;;;;;;;6.87;2.57;;;14.30;64.40;;;;;;5082921;28;20217;-60
2023/10/28 10:05:06;;;;;;;11.57;2.50;;;14.50;70.00;;;;;;5080088;28;20594;-59
2023/10/28 10:07:36;;;;;;;8.93;2.50;;;14.40;56.00;;;;;;5078040;28;20249;-60
2023/10/28 10:10:10;;;;;;;9.10;2.47;;;14.40;60.80;;;;;;5074103;28;20188;-60
2023/10/28 10:12:38;;;;;;;12.87;3.27;;;14.30;60.80;;;;;;5078434;28;20229;-59
2023/10/28 10:15:09;;;;;;;7.50;2.63;;;14.30;69.30;;;;;;5079358;28;20219;-60
2023/10/28 10:17:48;;;;;;;11.50;2.70;;;14.40;82.40;;;;;;5085763;28;20316;-60
2023/10/28 10:20:26;;;;;;;10.07;2.90;;;14.60;83.50;;;;;;5056817;28;20764;-60
2023/10/28 10:23:00;;;;;;;10.37;2.80;;;14.80;71.60;;;;;;5062276;28;20649;-60
2023/10/28 10:25:32;;;;;;;8.67;2.57;;;14.90;56.80;;;;;;5059662;28;20230;-59
2023/10/28 10:28:13;;;;;;;6.30;2.50;;;15.00;32.00;;;;;;5066857;28;20215;-60
2023/10/28 10:30:42;;;;;;;13.37;3.10;;;15.00;33.70;;;;;;5083597;28;20305;-59
2023/10/28 10:33:12;;;;;;;7.07;2.73;;;15.00;49.30;;;;;;5078214;28;20308;-60
2023/10/28 10:35:49;;;;;;;13.17;2.57;;;15.20;45.40;;;;;;5079900;28;20249;-60
2023/10/28 10:38:18;;;;;;;11.60;2.87;;;15.40;30.00;;;;;;5079621;28;20788;-60
2023/10/28 10:40:53;;;;;;;11.80;2.70;;;15.60;51.60;;;;;;5080638;28;20210;-59
2023/10/28 10:43:22;;;;;;;11.20;2.70;;;15.50;18.40;;;;;;5081809;28;20218;-60
2023/10/28 10:45:53;;;;;;;11.20;2.80;;;15.40;21.80;;;;;;5087134;28;20304;-60
2023/10/28 10:48:22;;;;;;;8.17;2.67;;;15.30;30.60;;;;;;5081944;28;20628;-60
2023/10/28 10:50:52;;;;;;;7.47;2.20;;;15.20;41.20;;;;;;5081064;28;20308;-60
2023/10/28 10:53:22;;;;;;;8.60;2.60;;;15.30;47.60;;;;;;5084269;28;20231;-60
2023/10/28 10:55:51;;;;;;;15.73;3.30;;;15.30;43.00;;;;;;5079888;28;20190;-60
2023/10/28 10:58:19;;;;;;;10.83;3.00;;;15.30;39.10;;;;;;5081299;28;20190;-60
2023/10/28 11:00:52;;;;;;;9.70;2.70;;;15.40;48.20;;;;;;5079533;28;20241;-60
2023/10/28 11:03:21;;;;;;;19.20;3.27;;;15.40;24.20;;;;;;5081590;28;20245;-60
2023/10/28 11:05:52;;;;;;;10.87;2.90;;;15.30;28.60;;;;;;5079457;28;20221;-61
2023/10/28 11:08:20;;;;;;;20.27;3.03;;;15.00;30.70;;;;;;5078808;28;20219;-60
2023/10/28 11:10:49;;;;;;;10.20;2.50;;;14.90;53.40;;;;;;5080530;28;20218;-60
2023/10/28 11:13:17;;;;;;;9.07;2.50;;;14.70;60.50;;;;;;5081220;28;20221;-60
2023/10/28 11:15:46;;;;;;;7.47;2.33;;;14.60;70.60;;;;;;5078796;28;20239;-60
2023/10/28 11:18:15;;;;;;;9.00;3.10;;;14.60;68.60;;;;;;5078393;28;20219;-60
2023/10/28 11:20:43;;;;;;;11.23;3.07;;;14.60;74.50;;;;;;5084596;28;20282;-60
2023/10/28 11:23:13;;;;;;;9.97;2.67;;;14.80;72.40;;;;;;5082515;28;20582;-60
2023/10/28 11:25:42;;;;;;;12.83;3.00;;;14.80;58.20;;;;;;5082696;28;20201;-60
2023/10/28 11:28:11;;;;;;;7.50;2.57;;;14.80;56.70;;;;;;5089291;28;20647;-60
2023/10/28 11:30:40;;;;;;;8.13;2.13;;;14.60;68.80;;;;;;5089683;28;20217;-61
2023/10/28 11:33:09;;;;;;;12.47;3.00;;;14.50;79.70;;;;;;5066255;28;20318;-60
2023/10/28 11:35:39;;;;;;;9.23;2.80;;;14.70;77.00;;;;;;5085578;28;20213;-59
2023/10/28 11:38:08;;;;;;;9.03;2.50;;;15.00;68.40;;;;;;5085650;28;20225;-59
2023/10/28 11:40:37;;;;;;;12.37;2.83;;;15.20;66.30;;;;;;5085579;28;20207;-59
2023/10/28 11:43:06;;;;;;;12.97;2.70;;;15.40;45.10;;;;;;5086510;28;20194;-59
2023/10/28 11:45:34;;;;;;;11.83;3.30;;;15.50;13.30;;;;;;5086361;28;20219;-58
2023/10/28 11:48:03;;;;;;;10.17;3.00;;;15.40;13.00;;;;;;5085462;28;20267;-59
2023/10/28 11:50:32;;;;;;;9.30;2.50;;;15.50;10.20;;;;;;5080794;28;20252;-60
2023/10/28 11:53:00;;;;;;;17.67;3.17;;;15.50;10.00;;;;;;5085435;28;20225;-59
2023/10/28 11:55:28;;;;;;;16.80;2.80;;;15.40;9.40;;;;;;5085862;28;20537;-59
2023/10/28 11:57:58;;;;;;;9.23;2.90;;;15.60;14.90;;;;;;5084692;28;20210;-59
2023/10/28 12:00:27;;;;;;;14.23;2.73;;;15.80;1.00;;;;;;5087147;28;20211;-59
2023/10/28 12:02:55;;;;;;;13.60;2.77;;;16.00;7.20;;;;;;5086358;28;20253;-59
2023/10/28 12:05:23;;;;;;;11.97;2.90;;;16.00;1.00;;;;;;5082874;28;20227;-59
2023/10/28 12:07:55;;;;;;;13.10;2.70;;;15.80;1.00;;;;;;5087522;28;20707;-59
2023/10/28 12:10:23;;;;;;;11.27;2.70;;;15.60;11.40;;;;;;5064379;28;20765;-59
2023/10/28 12:12:51;;;;;;;16.43;3.13;;;15.60;18.60;;;;;;5082513;28;20226;-59
2023/10/28 12:15:21;;;;;;;10.87;2.70;;;15.60;25.60;;;;;;5079257;28;20579;-59
2023/10/28 12:17:49;;;;;;;11.20;3.00;;;16.00;9.10;;;;;;5085645;28;20228;-59
2023/10/28 12:20:17;;;;;;;10.43;2.67;;;16.10;1.00;;;;;;5086097;28;20253;-59
2023/10/28 12:22:46;;;;;;;11.30;2.57;;;16.20;1.00;;;;;;5083335;28;20193;-60
2023/10/28 12:25:14;;;;;;;14.43;2.60;;;16.20;1.00;;;;;;5082016;28;20193;-59
2023/10/28 12:27:42;;;;;;;13.13;2.83;;;16.00;1.00;;;;;;5084666;28;20754;-59
2023/10/28 12:30:11;;;;;;;8.97;2.80;;;15.90;5.70;;;;;;5086496;28;20234;-59
2023/10/28 12:32:41;;;;;;;12.40;3.10;;;16.00;4.00;;;;;;5084724;28;20226;-59
2023/10/28 12:35:09;;;;;;;13.33;2.80;;;16.20;1.00;;;;;;5081217;28;20313;-59
2023/10/28 12:37:37;;;;;;;9.67;2.70;;;16.20;1.00;;;;;;5076244;28;20207;-59
2023/10/28 12:40:07;;;;;;;10.30;3.30;;;16.20;1.00;;;;;;5087647;28;20195;-59
2023/10/28 12:42:36;;;;;;;9.07;2.67;;;16.30;1.00;;;;;;5087880;28;20299;-60
2023/10/28 12:45:04;;;;;;;9.30;2.80;;;16.30;1.00;;;;;;5080876;28;20917;-59
2023/10/28 12:47:34;;;;;;;12.07;2.87;;;16.20;1.00;;;;;;5083844;28;20230;-59
2023/10/28 12:50:04;;;;;;;11.93;2.80;;;16.10;1.00;;;;;;5081460;28;20276;-59
2023/10/28 12:52:32;;;;;;;10.00;2.60;;;16.00;1.00;;;;;;5083217;28;20352;-59
2023/10/28 12:55:02;;;;;;;8.77;2.80;;;16.00;1.00;;;;;;5082686;28;20198;-59